Time;durP1;ratioP1;P1;durP2;ratioP2;P2;SDS_P1;SDS_P2;PMS_P1;PMS_P2;Temp;Humidity;BMP_temperature;BMP_pressure;BME280_temperature;BME280_humidity;BME280_pressure;Samples;Min_cycle;Max_cycle;Signal;HPM_P1;HPM_P2
2022/05/27 00:01:51;;;;;;;;;;;;;;;;;;5020518;28;19921;-69
2022/05/27 00:04:17;;;;;;;;;;;;;;;;;;5015391;28;19968;-68
2022/05/27 00:06:43;;;;;;;;;;;;;;;;;;5017131;28;19921;-67
2022/05/27 00:09:09;;;;;;;;;;;;;;;;;;5018985;28;19925;-70
2022/05/27 00:11:34;;;;;;;;;;;;;;;;;;5010765;28;20001;-65
2022/05/27 00:14:00;;;;;;;;;;;;;;;;;;5012677;28;19921;-67
2022/05/27 00:16:28;;;;;;;;;;;;;;;;;;5011774;28;19952;-67
2022/05/27 00:18:54;;;;;;;;;;;;;;;;;;5021355;28;20119;-66
2022/05/27 00:21:20;;;;;;;;;;;;;;;;;;5010939;28;20365;-67
2022/05/27 00:23:45;;;;;;;;;;;;;;;;;;5013055;28;20582;-67
2022/05/27 00:26:11;;;;;;;;;;;;;;;;;;5010953;28;19944;-67
2022/05/27 00:28:37;;;;;;;;;;;;;;;;;;5007352;28;19944;-65
2022/05/27 00:31:05;;;;;;;;;;;;;;;;;;5011846;28;20004;-68
2022/05/27 00:33:30;;;;;;;;;;;;;;;;;;5009070;28;19921;-67
2022/05/27 00:35:56;;;;;;;;;;;;;;;;;;5010351;28;20143;-68
2022/05/27 00:38:22;;;;;;;;;;;;;;;;;;5018554;28;20074;-66
2022/05/27 00:40:48;;;;;;;;;;;;;;;;;;5007374;28;19929;-67
2022/05/27 00:43:14;;;;;;;;;;;;;;;;;;5027403;28;19927;-67
2022/05/27 00:45:40;;;;;;;;;;;;;;;;;;5008863;28;19944;-67
2022/05/27 00:48:06;;;;;;;;;;;;;;;;;;5012470;28;19995;-67
2022/05/27 00:50:32;;;;;;;;;;;;;;;;;;5018524;28;20238;-67
2022/05/27 00:52:58;;;;;;;;;;;;;;;;;;5011702;28;20431;-67
2022/05/27 00:55:24;;;;;;;;;;;;;;;;;;5017067;28;19926;-68
2022/05/27 00:57:50;;;;;;;;;;;;;;;;;;5013773;28;19933;-67
2022/05/27 01:00:16;;;;;;;;;;;;;;;;;;5008460;28;19933;-67
2022/05/27 01:02:42;;;;;;;;;;;;;;;;;;5009329;28;20358;-67
2022/05/27 01:05:08;;;;;;;;;;;;;;;;;;5009467;28;19936;-67
2022/05/27 01:07:34;;;;;;;;;;;;;;;;;;5016569;28;19937;-67
2022/05/27 01:10:00;;;;;;;;;;;;;;;;;;5029850;28;19948;-67
2022/05/27 01:12:26;;;;;;;;;;;;;;;;;;5011094;28;20062;-67
2022/05/27 01:14:52;;;;;;;;;;;;;;;;;;5021465;28;19921;-67
2022/05/27 01:17:18;;;;;;;;;;;;;;;;;;5009313;28;19944;-68
2022/05/27 01:22:30;;;;;;;;;;;;;;;;;;5007552;28;20035;-66
2022/05/27 01:24:55;;;;;;;;;;;;;;;;;;5027764;28;19989;-65
2022/05/27 01:27:21;;;;;;;;;;;;;;;;;;5029697;28;20373;-68
2022/05/27 01:29:47;;;;;;;;;;;;;;;;;;5029597;28;19921;-66
2022/05/27 01:32:13;;;;;;;;;;;;;;;;;;5011100;28;20058;-68
2022/05/27 01:34:39;;;;;;;;;;;;;;;;;;5013960;28;19928;-66
2022/05/27 01:37:05;;;;;;;;;;;;;;;;;;5018643;28;20026;-67
2022/05/27 01:39:31;;;;;;;;;;;;;;;;;;5023291;28;19970;-67
2022/05/27 01:41:57;;;;;;;;;;;;;;;;;;5004217;28;19925;-66
2022/05/27 01:44:23;;;;;;;;;;;;;;;;;;5013586;28;19921;-67
2022/05/27 01:46:49;;;;;;;;;;;;;;;;;;4997838;28;20337;-66
2022/05/27 01:49:15;;;;;;;;;;;;;;;;;;5009613;28;20381;-67
2022/05/27 01:51:41;;;;;;;;;;;;;;;;;;5019500;28;19921;-66
2022/05/27 01:54:07;;;;;;;;;;;;;;;;;;5017492;28;19920;-66
2022/05/27 01:56:33;;;;;;;;;;;;;;;;;;5017220;28;19920;-65
2022/05/27 01:58:59;;;;;;;;;;;;;;;;;;5008718;28;20260;-66
2022/05/27 02:01:25;;;;;;;;;;;;;;;;;;5013518;28;20322;-66
2022/05/27 02:03:51;;;;;;;;;;;;;;;;;;5011718;28;20293;-66
2022/05/27 02:06:17;;;;;;;;;;;;;;;;;;5008939;28;20023;-66
2022/05/27 02:08:43;;;;;;;;;;;;;;;;;;5014794;28;20032;-66
2022/05/27 02:11:09;;;;;;;;;;;;;;;;;;5005756;28;20008;-66
2022/05/27 02:13:35;;;;;;;;;;;;;;;;;;5011332;28;19921;-65
2022/05/27 02:16:01;;;;;;;;;;;;;;;;;;5020254;28;20054;-66
2022/05/27 02:18:27;;;;;;;;;;;;;;;;;;5014725;28;19956;-67
2022/05/27 02:20:53;;;;;;;;;;;;;;;;;;5006417;28;20253;-65
2022/05/27 02:23:19;;;;;;;;;;;;;;;;;;5009432;28;20234;-66
2022/05/27 02:25:45;;;;;;;;;;;;;;;;;;5009247;28;20254;-67
2022/05/27 02:28:10;;;;;;;;;;;;;;;;;;5005951;28;20190;-66
2022/05/27 02:30:36;;;;;;;;;;;;;;;;;;5017528;28;20349;-65
2022/05/27 02:35:47;;;;;;;;;;;;;;;;;;5021060;28;20019;-66
2022/05/27 02:38:13;;;;;;;;;;;;;;;;;;5012951;28;20092;-66
2022/05/27 02:40:39;;;;;;;;;;;;;;;;;;5017350;28;20361;-67
2022/05/27 02:43:05;;;;;;;;;;;;;;;;;;5007252;28;19951;-66
2022/05/27 02:45:31;;;;;;;;;;;;;;;;;;5019791;28;20107;-67
2022/05/27 02:47:57;;;;;;;;;;;;;;;;;;5017936;28;19932;-65
2022/05/27 02:50:26;;;;;;;;;;;;;;;;;;5006968;28;19929;-66
2022/05/27 02:52:51;;;;;;;;;;;;;;;;;;5007292;28;19929;-66
2022/05/27 02:55:18;;;;;;;;;;;;;;;;;;5006655;28;20339;-66
2022/05/27 02:57:44;;;;;;;;;;;;;;;;;;5008975;28;20803;-64
2022/05/27 03:00:10;;;;;;;;;;;;;;;;;;5006547;28;19987;-66
2022/05/27 03:02:36;;;;;;;;;;;;;;;;;;5004806;28;19921;-66
2022/05/27 03:05:02;;;;;;;;;;;;;;;;;;5022322;28;20334;-66
2022/05/27 03:07:28;;;;;;;;;;;;;;;;;;5019015;28;20273;-65
2022/05/27 03:09:54;;;;;;;;;;;;;;;;;;5010542;28;19956;-67
2022/05/27 03:12:20;;;;;;;;;;;;;;;;;;5013383;28;19960;-66
2022/05/27 03:14:46;;;;;;;;;;;;;;;;;;5010716;28;19971;-66
2022/05/27 03:17:12;;;;;;;;;;;;;;;;;;5004538;28;19937;-66
2022/05/27 03:19:38;;;;;;;;;;;;;;;;;;5006069;28;19925;-66
2022/05/27 03:22:04;;;;;;;;;;;;;;;;;;5005372;28;19921;-65
2022/05/27 03:24:29;;;;;;;;;;;;;;;;;;5010925;28;19956;-66
2022/05/27 03:26:55;;;;;;;;;;;;;;;;;;5005755;28;20020;-66
2022/05/27 03:29:21;;;;;;;;;;;;;;;;;;5004065;28;20016;-66
2022/05/27 03:31:47;;;;;;;;;;;;;;;;;;5020147;28;19929;-65
2022/05/27 03:34:13;;;;;;;;;;;;;;;;;;5004197;28;19921;-65
2022/05/27 03:36:39;;;;;;;;;;;;;;;;;;5017037;28;20176;-65
2022/05/27 03:39:05;;;;;;;;;;;;;;;;;;5012293;28;19922;-65
2022/05/27 03:41:31;;;;;;;;;;;;;;;;;;5008569;28;19947;-65
2022/05/27 03:43:57;;;;;;;;;;;;;;;;;;5026111;28;20289;-66
2022/05/27 03:46:23;;;;;;;;;;;;;;;;;;5023557;28;19940;-65
2022/05/27 03:48:49;;;;;;;;;;;;;;;;;;5018917;28;19921;-65
2022/05/27 03:51:15;;;;;;;;;;;;;;;;;;5009619;28;19943;-65
2022/05/27 03:56:25;;;;;;;;;;;;;;;;;;5009332;28;20009;-65
2022/05/27 03:58:52;;;;;;;;;;;;;;;;;;5021711;28;19966;-64
2022/05/27 04:01:18;;;;;;;;;;;;;;;;;;5029140;28;19925;-65
2022/05/27 04:03:43;;;;;;;;;;;;;;;;;;5026064;28;20332;-65
2022/05/27 04:06:09;;;;;;;;;;;;;;;;;;5008377;28;20360;-66
2022/05/27 04:08:35;;;;;;;;;;;;;;;;;;5009336;28;20388;-65
2022/05/27 04:11:01;;;;;;;;;;;;;;;;;;5010216;28;20319;-66
2022/05/27 04:13:27;;;;;;;;;;;;;;;;;;5009526;28;20379;-65
2022/05/27 04:15:53;;;;;;;;;;;;;;;;;;5009077;28;20361;-65
2022/05/27 04:18:19;;;;;;;;;;;;;;;;;;5019233;28;20376;-64
2022/05/27 04:20:45;;;;;;;;;;;;;;;;;;5005180;28;20226;-65
2022/05/27 04:23:11;;;;;;;;;;;;;;;;;;5016928;28;20268;-64
2022/05/27 04:25:38;;;;;;;;;;;;;;;;;;5017354;28;20135;-65
2022/05/27 04:28:04;;;;;;;;;;;;;;;;;;5018431;28;19928;-65
2022/05/27 04:30:30;;;;;;;;;;;;;;;;;;5012925;28;19929;-66
2022/05/27 04:32:56;;;;;;;;;;;;;;;;;;5024296;28;20083;-65
2022/05/27 04:35:22;;;;;;;;;;;;;;;;;;5018843;28;19921;-66
2022/05/27 04:37:48;;;;;;;;;;;;;;;;;;5010542;28;19972;-66
2022/05/27 04:40:14;;;;;;;;;;;;;;;;;;5006365;28;19933;-66
2022/05/27 04:42:40;;;;;;;;;;;;;;;;;;5027591;28;19920;-66
2022/05/27 04:45:06;;;;;;;;;;;;;;;;;;5012144;28;19932;-66
2022/05/27 04:52:43;;;;;;;;;;;;;;;;;;5146748;23;19980;-67
2022/05/27 04:55:09;;;;;;;;;;;;;;;;;;4974212;28;19965;-67
2022/05/27 04:57:35;;;;;;;;;;;;;;;;;;4975547;28;19922;-66
2022/05/27 05:00:01;;;;;;;;;;;;;;;;;;4975102;28;20238;-66
2022/05/27 05:02:27;;;;;;;;;;;;;;;;;;4974707;28;19922;-67
2022/05/27 05:04:53;;;;;;;;;;;;;;;;;;4974642;28;19944;-65
2022/05/27 05:07:19;;;;;;;;;;;;;;;;;;4974494;28;19918;-65
2022/05/27 05:09:45;;;;;;;;;;;;;;;;;;4973326;28;19922;-66
2022/05/27 05:12:11;;;;;;;;;;;;;;;;;;4974444;28;19984;-65
2022/05/27 05:14:37;;;;;;;;;;;;;;;;;;4973271;28;19922;-66
2022/05/27 05:17:03;;;;;;;;;;;;;;;;;;4974306;28;19929;-65
2022/05/27 05:19:29;;;;;;;;;;;;;;;;;;4974826;28;19981;-66
2022/05/27 05:21:55;;;;;;;;;;;;;;;;;;4974699;28;19922;-65
2022/05/27 05:24:21;;;;;;;;;;;;;;;;;;4974534;28;19922;-67
2022/05/27 05:26:47;;;;;;;;;;;;;;;;;;4974256;28;20266;-66
2022/05/27 05:29:12;;;;;;;;;;;;;;;;;;4974589;28;20270;-65
2022/05/27 05:31:38;;;;;;;;;;;;;;;;;;4974371;28;19969;-66
2022/05/27 05:34:04;;;;;;;;;;;;;;;;;;4973941;28;19937;-66
2022/05/27 05:36:30;;;;;;;;;;;;;;;;;;4973296;28;19928;-67
2022/05/27 05:38:56;;;;;;;;;;;;;;;;;;4974118;28;19969;-66
2022/05/27 05:41:22;;;;;;;;;;;;;;;;;;4974635;28;20345;-66
2022/05/27 05:43:48;;;;;;;;;;;;;;;;;;4974371;28;20326;-67
2022/05/27 05:46:14;;;;;;;;;;;;;;;;;;4973743;28;19926;-69
2022/05/27 05:48:40;;;;;;;;;;;;;;;;;;4974085;28;20020;-68
2022/05/27 05:51:06;;;;;;;;;;;;;;;;;;4973671;28;19926;-67
2022/05/27 05:53:32;;;;;;;;;;;;;;;;;;4973935;28;19922;-67
2022/05/27 05:55:58;;;;;;;;;;;;;;;;;;4973825;28;20028;-67
2022/05/27 05:58:24;;;;;;;;;;;;;;;;;;4974364;28;19926;-67
2022/05/27 06:00:50;;;;;;;;;;;;;;;;;;4972799;28;19945;-68
2022/05/27 06:03:16;;;;;;;;;;;;;;;;;;4973370;28;19922;-67
2022/05/27 06:05:42;;;;;;;;;;;;;;;;;;4973494;28;20055;-67
2022/05/27 06:08:08;;;;;;;;;;;;;;;;;;4973466;28;19977;-67
2022/05/27 06:10:34;;;;;;;;;;;;;;;;;;4973481;28;20317;-68
2022/05/27 06:13:00;;;;;;;;;;;;;;;;;;4973373;28;19988;-69
2022/05/27 06:15:26;;;;;;;;;;;;;;;;;;4972955;28;19925;-68
2022/05/27 06:17:52;;;;;;;;;;;;;;;;;;4973739;28;19941;-69
2022/05/27 06:20:18;;;;;;;;;;;;;;;;;;4972191;28;19922;-66
2022/05/27 06:22:44;;;;;;;;;;;;;;;;;;4973121;28;20293;-66
2022/05/27 06:25:10;;;;;;;;;;;;;;;;;;4973032;28;19985;-67
2022/05/27 06:27:36;;;;;;;;;;;;;;;;;;4972226;28;19929;-67
2022/05/27 06:35:32;;;;;;;;;;;;;;;;;;4972881;28;19933;-68
2022/05/27 06:37:58;;;;;;;;;;;;;;;;;;4972868;28;19922;-68
2022/05/27 06:40:24;;;;;;;;;;;;;;;;;;4973022;28;19972;-67
2022/05/27 06:42:50;;;;;;;;;;;;;;;;;;4972994;28;19933;-67
2022/05/27 06:45:15;;;;;;;;;;;;;;;;;;4972656;28;19929;-66
2022/05/27 06:47:41;;;;;;;;;;;;;;;;;;4972813;28;19929;-67
2022/05/27 06:50:07;;;;;;;;;;;;;;;;;;4972732;28;20020;-69
2022/05/27 06:52:33;;;;;;;;;;;;;;;;;;4973029;28;19922;-66
2022/05/27 06:54:59;;;;;;;;;;;;;;;;;;4971435;28;20008;-65
2022/05/27 06:57:25;;;;;;;;;;;;;;;;;;4972640;28;19922;-69
2022/05/27 06:59:51;;;;;;;;;;;;;;;;;;4972608;28;19980;-67
2022/05/27 07:02:17;;;;;;;;;;;;;;;;;;4956124;28;19922;-67
2022/05/27 07:04:43;;;;;;;;;;;;;;;;;;4972269;28;20254;-66
2022/05/27 07:07:09;;;;;;;;;;;;;;;;;;4972626;28;19929;-66
2022/05/27 07:09:35;;;;;;;;;;;;;;;;;;4972528;28;20009;-66
2022/05/27 07:12:01;;;;;;;;;;;;;;;;;;4971449;28;19966;-66
2022/05/27 07:14:27;;;;;;;;;;;;;;;;;;4970742;28;19969;-67
2022/05/27 07:16:53;;;;;;;;;;;;;;;;;;4972508;28;19922;-68
2022/05/27 07:19:20;;;;;;;;;;;;;;;;;;4972284;28;19922;-65
2022/05/27 07:21:46;;;;;;;;;;;;;;;;;;4972487;28;20001;-67
2022/05/27 07:24:13;;;;;;;;;;;;;;;;;;4972525;28;19922;-68
2022/05/27 07:26:39;;;;;;;;;;;;;;;;;;4972177;28;19922;-67
2022/05/27 07:29:05;;;;;;;;;;;;;;;;;;4972357;28;19949;-67
2022/05/27 07:31:31;;;;;;;;;;;;;;;;;;4972293;28;19922;-67
2022/05/27 07:33:57;;;;;;;;;;;;;;;;;;4971940;28;20017;-67
2022/05/27 07:36:23;;;;;;;;;;;;;;;;;;4971943;28;19922;-67
2022/05/27 07:38:51;;;;;;;;;;;;;;;;;;4955970;28;19929;-70
2022/05/27 07:41:17;;;;;;;;;;;;;;;;;;4971915;28;19929;-65
2022/05/27 07:43:44;;;;;;;;;;;;;;;;;;4972034;28;19922;-66
2022/05/27 07:46:10;;;;;;;;;;;;;;;;;;4972260;28;20131;-69
2022/05/27 07:48:36;;;;;;;;;;;;;;;;;;4971972;28;19968;-68
2022/05/27 07:51:02;;;;;;;;;;;;;;;;;;4972127;28;20368;-70
2022/05/27 07:53:28;;;;;;;;;;;;;;;;;;4970886;28;20238;-65
2022/05/27 07:55:54;;;;;;;;;;;;;;;;;;4972044;28;19988;-66
2022/05/27 07:58:20;;;;;;;;;;;;;;;;;;4971529;28;19933;-67
2022/05/27 08:00:45;;;;;;;;;;;;;;;;;;4971898;28;19928;-67
2022/05/27 08:03:12;;;;;;;;;;;;;;;;;;4971989;28;20254;-67
2022/05/27 08:05:39;;;;;;;;;;;;;;;;;;4972022;28;19925;-72
2022/05/27 08:08:05;;;;;;;;;;;;;;;;;;4972086;28;19928;-69
2022/05/27 08:10:31;;;;;;;;;;;;;;;;;;4972004;28;19922;-66
2022/05/27 08:12:57;;;;;;;;;;;;;;;;;;4972069;28;19921;-69
2022/05/27 08:15:23;;;;;;;;;;;;;;;;;;4971658;28;19929;-69
2022/05/27 08:17:49;;;;;;;;;;;;;;;;;;4970804;28;20410;-70
2022/05/27 08:20:17;;;;;;;;;;;;;;;;;;4971807;28;19957;-68
2022/05/27 08:22:43;;;;;;;;;;;;;;;;;;4972619;28;20270;-69
2022/05/27 08:25:09;;;;;;;;;;;;;;;;;;4970860;28;19929;-67
2022/05/27 08:27:34;;;;;;;;;;;;;;;;;;4974017;28;20334;-65
2022/05/27 08:30:02;;;;;;;;;;;;;;;;;;4975325;28;19976;-68
2022/05/27 08:32:30;;;;;;;;;;;;;;;;;;4975338;28;19922;-69
2022/05/27 08:40:25;;;;;;;;;;;;;;;;;;4975100;28;20352;-67
2022/05/27 08:42:51;;;;;;;;;;;;;;;;;;4975809;28;19990;-69
2022/05/27 08:45:17;;;;;;;;;;;;;;;;;;4975036;28;19990;-67
2022/05/27 08:47:43;;;;;;;;;;;;;;;;;;4975442;28;19922;-68
2022/05/27 08:50:09;;;;;;;;;;;;;;;;;;4975264;28;20314;-67
2022/05/27 08:52:35;;;;;;;;;;;;;;;;;;4975750;28;19921;-67
2022/05/27 08:55:01;;;;;;;;;;;;;;;;;;4975202;28;19953;-71
2022/05/27 09:00:14;;;;;;;;;;;;;;;;;;4975080;28;19932;-69
2022/05/27 09:02:40;;;;;;;;;;;;;;;;;;4973303;28;20449;-69
2022/05/27 09:05:06;;;;;;;;;;;;;;;;;;4974840;28;19969;-68
2022/05/27 09:07:32;;;;;;;;;;;;;;;;;;4974775;28;19945;-67
2022/05/27 09:09:58;;;;;;;;;;;;;;;;;;4975075;28;19965;-69
2022/05/27 09:12:24;;;;;;;;;;;;;;;;;;4974969;28;20408;-69
2022/05/27 09:14:49;;;;;;;;;;;;;;;;;;4974845;28;20357;-68
2022/05/27 09:17:15;;;;;;;;;;;;;;;;;;4974680;28;20354;-69
2022/05/27 09:19:41;;;;;;;;;;;;;;;;;;4974613;28;20418;-68
2022/05/27 09:22:07;;;;;;;;;;;;;;;;;;4974194;28;19922;-69
2022/05/27 09:24:33;;;;;;;;;;;;;;;;;;4974457;28;19922;-72
2022/05/27 09:27:01;;;;;;;;;;;;;;;;;;4974392;28;20017;-69
2022/05/27 09:29:26;;;;;;;;;;;;;;;;;;4973375;28;20024;-71
2022/05/27 09:31:52;;;;;;;;;;;;;;;;;;4974784;28;19929;-70
2022/05/27 09:34:18;;;;;;;;;;;;;;;;;;4974764;28;19922;-68
2022/05/27 09:36:44;;;;;;;;;;;;;;;;;;4973902;28;20397;-74
2022/05/27 09:39:13;;;;;;;;;;;;;;;;;;4974343;28;20342;-71
2022/05/27 09:41:39;;;;;;;;;;;;;;;;;;4974137;28;20049;-71
2022/05/27 09:44:06;;;;;;;;;;;;;;;;;;4974174;28;19922;-70
2022/05/27 09:46:32;;;;;;;;;;;;;;;;;;4974555;28;19922;-69
2022/05/27 09:48:58;;;;;;;;;;;;;;;;;;4974258;28;19928;-69
2022/05/27 09:51:24;;;;;;;;;;;;;;;;;;4973483;28;20038;-68
2022/05/27 09:53:50;;;;;;;;;;;;;;;;;;4974564;28;19922;-77
2022/05/27 09:56:16;;;;;;;;;;;;;;;;;;4972733;28;19922;-65
2022/05/27 09:58:42;;;;;;;;;;;;;;;;;;4973507;28;19922;-66
2022/05/27 10:01:08;;;;;;;;;;;;;;;;;;4973909;28;19929;-68
2022/05/27 10:03:34;;;;;;;;;;;;;;;;;;4973897;28;19937;-70
2022/05/27 10:06:00;;;;;;;;;;;;;;;;;;4974275;28;19922;-69
2022/05/27 10:08:26;;;;;;;;;;;;;;;;;;4973733;28;20374;-71
2022/05/27 10:10:52;;;;;;;;;;;;;;;;;;4973682;28;20020;-69
2022/05/27 10:13:18;;;;;;;;;;;;;;;;;;4973548;28;19932;-71
2022/05/27 10:15:44;;;;;;;;;;;;;;;;;;4972375;28;19926;-71
2022/05/27 10:18:10;;;;;;;;;;;;;;;;;;4973510;28;19992;-68
2022/05/27 10:20:36;;;;;;;;;;;;;;;;;;4973548;28;19929;-71
2022/05/27 10:23:02;;;;;;;;;;;;;;;;;;4972174;28;19949;-67
2022/05/27 10:25:28;;;;;;;;;;;;;;;;;;4973978;28;19922;-69
2022/05/27 10:27:55;;;;;;;;;;;;;;;;;;4973435;28;20308;-68
2022/05/27 10:30:21;;;;;;;;;;;;;;;;;;4972810;28;19922;-68
2022/05/27 10:32:47;;;;;;;;;;;;;;;;;;4973187;28;19922;-69
2022/05/27 10:35:13;;;;;;;;;;;;;;;;;;4972999;28;19934;-69
2022/05/27 10:37:39;;;;;;;;;;;;;;;;;;4972994;28;19922;-67
2022/05/27 10:40:06;;;;;;;;;;;;;;;;;;4973113;28;20340;-67
2022/05/27 10:42:32;;;;;;;;;;;;;;;;;;4973030;28;20048;-67
2022/05/27 10:44:58;;;;;;;;;;;;;;;;;;4973007;28;19969;-69
2022/05/27 10:47:24;;;;;;;;;;;;;;;;;;4973722;28;19922;-68
2022/05/27 10:49:50;;;;;;;;;;;;;;;;;;4972317;28;19965;-71
2022/05/27 10:52:17;;;;;;;;;;;;;;;;;;4972861;28;19942;-68
2022/05/27 10:54:44;;;;;;;;;;;;;;;;;;4972751;28;19977;-67
2022/05/27 11:02:39;;;;;;;;;;;;;;;;;;4972531;28;20297;-69
2022/05/27 11:05:05;;;;;;;;;;;;;;;;;;4971486;28;20001;-72
2022/05/27 11:07:31;;;;;;;;;;;;;;;;;;4973191;28;20368;-70
2022/05/27 11:09:57;;;;;;;;;;;;;;;;;;4955237;28;19922;-71
2022/05/27 11:12:23;;;;;;;;;;;;;;;;;;4972270;28;19922;-69
2022/05/27 11:17:35;;;;;;;;;;;;;;;;;;4973053;28;20016;-67
2022/05/27 11:20:01;;;;;;;;;;;;;;;;;;4972407;28;19922;-69
2022/05/27 11:22:27;;;;;;;;;;;;;;;;;;4972342;28;20290;-68
2022/05/27 11:24:53;;;;;;;;;;;;;;;;;;4972283;28;19929;-68
2022/05/27 11:27:18;;;;;;;;;;;;;;;;;;4972367;28;19921;-70
2022/05/27 11:29:45;;;;;;;;;;;;;;;;;;4972000;28;19972;-70
2022/05/27 11:32:11;;;;;;;;;;;;;;;;;;4971824;28;19922;-68
2022/05/27 11:34:37;;;;;;;;;;;;;;;;;;4954944;28;19922;-66
2022/05/27 11:37:03;;;;;;;;;;;;;;;;;;4971860;28;19925;-65
2022/05/27 11:39:29;;;;;;;;;;;;;;;;;;4970802;28;19922;-68
2022/05/27 11:41:55;;;;;;;;;;;;;;;;;;4972033;28;19922;-69
2022/05/27 11:44:21;;;;;;;;;;;;;;;;;;4971924;28;19929;-68
2022/05/27 11:46:47;;;;;;;;;;;;;;;;;;4972199;28;20313;-70
2022/05/27 11:49:13;;;;;;;;;;;;;;;;;;4972128;28;20017;-72
2022/05/27 11:51:39;;;;;;;;;;;;;;;;;;4972011;28;19926;-68
2022/05/27 11:54:06;;;;;;;;;;;;;;;;;;4971587;28;19928;-68
2022/05/27 11:56:33;;;;;;;;;;;;;;;;;;4972497;28;19922;-70
2022/05/27 11:58:59;;;;;;;;;;;;;;;;;;4972900;28;20318;-67
2022/05/27 12:01:25;;;;;;;;;;;;;;;;;;4975830;28;19926;-70
2022/05/27 12:03:51;;;;;;;;;;;;;;;;;;4976177;28;19925;-68
2022/05/27 12:06:16;;;;;;;;;;;;;;;;;;4976679;28;19922;-67
2022/05/27 12:08:42;;;;;;;;;;;;;;;;;;4975740;28;20358;-70
2022/05/27 12:11:08;;;;;;;;;;;;;;;;;;4975601;28;19922;-74
2022/05/27 12:13:34;;;;;;;;;;;;;;;;;;4974484;28;19933;-69
2022/05/27 12:16:01;;;;;;;;;;;;;;;;;;4975558;28;19922;-70
2022/05/27 12:18:27;;;;;;;;;;;;;;;;;;4975592;28;19932;-67
2022/05/27 12:20:53;;;;;;;;;;;;;;;;;;4974191;28;19922;-68
2022/05/27 12:23:18;;;;;;;;;;;;;;;;;;4975515;28;19922;-68
2022/05/27 12:25:45;;;;;;;;;;;;;;;;;;4975514;28;19926;-68
2022/05/27 12:28:11;;;;;;;;;;;;;;;;;;4975587;28;20326;-68
2022/05/27 12:30:39;;;;;;;;;;;;;;;;;;4975598;28;19929;-69
2022/05/27 12:33:05;;;;;;;;;;;;;;;;;;4975183;28;19937;-67
2022/05/27 12:35:31;;;;;;;;;;;;;;;;;;4975199;28;19922;-70
2022/05/27 12:37:57;;;;;;;;;;;;;;;;;;4975264;28;20009;-70
2022/05/27 12:40:23;;;;;;;;;;;;;;;;;;4975913;28;19957;-68
2022/05/27 12:42:49;;;;;;;;;;;;;;;;;;4975843;28;20396;-72
2022/05/27 12:45:15;;;;;;;;;;;;;;;;;;4975395;28;20357;-68
2022/05/27 12:47:41;;;;;;;;;;;;;;;;;;4975325;28;19984;-68
2022/05/27 12:50:07;;;;;;;;;;;;;;;;;;4957839;28;20009;-68
2022/05/27 12:52:33;;;;;;;;;;;;;;;;;;4975096;28;19929;-67
2022/05/27 12:54:59;;;;;;;;;;;;;;;;;;4974966;28;19955;-69
2022/05/27 13:02:54;;;;;;;;;;;;;;;;;;4974893;28;20429;-67
2022/05/27 13:05:20;;;;;;;;;;;;;;;;;;4975059;28;19922;-69
2022/05/27 13:07:52;;;;;;;;;;;;;;;;;;4974925;28;19922;-70
2022/05/27 13:10:18;;;;;;;;;;;;;;;;;;4975837;28;20334;-69
2022/05/27 13:12:52;;;;;;;;;;;;;;;;;;4973993;28;19953;-71
2022/05/27 13:15:18;;;;;;;;;;;;;;;;;;4975261;28;19969;-71
2022/05/27 13:17:44;;;;;;;;;;;;;;;;;;4974877;28;20087;-69
2022/05/27 13:20:10;;;;;;;;;;;;;;;;;;4974675;28;19941;-68
2022/05/27 13:22:36;;;;;;;;;;;;;;;;;;4974822;28;19992;-69
2022/05/27 13:25:02;;;;;;;;;;;;;;;;;;4974858;28;19922;-67
2022/05/27 13:27:28;;;;;;;;;;;;;;;;;;4974817;28;19922;-67
2022/05/27 13:29:54;;;;;;;;;;;;;;;;;;4973788;28;19926;-69
2022/05/27 13:32:19;;;;;;;;;;;;;;;;;;4973670;28;19993;-70
2022/05/27 13:34:45;;;;;;;;;;;;;;;;;;4974489;28;19944;-70
2022/05/27 13:37:11;;;;;;;;;;;;;;;;;;4974502;28;19976;-70
2022/05/27 13:39:38;;;;;;;;;;;;;;;;;;4974503;28;20018;-68
2022/05/27 13:42:04;;;;;;;;;;;;;;;;;;4974791;28;19922;-67
2022/05/27 13:44:30;;;;;;;;;;;;;;;;;;4975009;28;20047;-69
2022/05/27 13:46:56;;;;;;;;;;;;;;;;;;4974284;28;19922;-70
2022/05/27 13:49:22;;;;;;;;;;;;;;;;;;4974181;28;19922;-68
2022/05/27 13:51:49;;;;;;;;;;;;;;;;;;4973985;28;20030;-69
2022/05/27 13:54:15;;;;;;;;;;;;;;;;;;4974676;28;20350;-71
2022/05/27 13:56:41;;;;;;;;;;;;;;;;;;4974139;28;19973;-70
2022/05/27 13:59:07;;;;;;;;;;;;;;;;;;4973873;28;19972;-69
2022/05/27 14:01:33;;;;;;;;;;;;;;;;;;4973815;28;20034;-71
2022/05/27 14:03:59;;;;;;;;;;;;;;;;;;4974743;28;19922;-69
2022/05/27 14:06:25;;;;;;;;;;;;;;;;;;4974409;28;20061;-67
2022/05/27 14:08:51;;;;;;;;;;;;;;;;;;4973835;28;20057;-68
2022/05/27 14:11:17;;;;;;;;;;;;;;;;;;4973652;28;20001;-70
2022/05/27 14:13:43;;;;;;;;;;;;;;;;;;4974372;28;19969;-70
2022/05/27 14:16:09;;;;;;;;;;;;;;;;;;4972293;28;19932;-67
2022/05/27 14:18:35;;;;;;;;;;;;;;;;;;4973389;28;19973;-69
2022/05/27 14:23:45;;;;;;;;;;;;;;;;;;4971373;28;19922;-67
2022/05/27 14:26:11;;;;;;;;;;;;;;;;;;4973256;28;20362;-67
2022/05/27 14:28:37;;;;;;;;;;;;;;;;;;4956594;28;19926;-68
2022/05/27 14:31:03;;;;;;;;;;;;;;;;;;4973813;28;19928;-70
2022/05/27 14:33:29;;;;;;;;;;;;;;;;;;4973209;28;19973;-70
2022/05/27 14:35:55;;;;;;;;;;;;;;;;;;4973377;28;19973;-70
2022/05/27 14:38:21;;;;;;;;;;;;;;;;;;4973883;28;20408;-67
2022/05/27 14:40:48;;;;;;;;;;;;;;;;;;4973482;28;19922;-70
2022/05/27 14:43:14;;;;;;;;;;;;;;;;;;4973798;28;20285;-69
2022/05/27 14:45:41;;;;;;;;;;;;;;;;;;4974113;28;19922;-70
2022/05/27 14:48:07;;;;;;;;;;;;;;;;;;4973216;28;19922;-68
2022/05/27 14:50:33;;;;;;;;;;;;;;;;;;4972561;28;19929;-69
2022/05/27 14:53:01;;;;;;;;;;;;;;;;;;4971510;28;19922;-70
2022/05/27 14:55:27;;;;;;;;;;;;;;;;;;4971654;28;19922;-70
2022/05/27 14:57:53;;;;;;;;;;;;;;;;;;4973118;28;19922;-68
2022/05/27 15:00:19;;;;;;;;;;;;;;;;;;4973453;28;19977;-69
2022/05/27 15:02:45;;;;;;;;;;;;;;;;;;4973029;28;19925;-68
2022/05/27 15:05:11;;;;;;;;;;;;;;;;;;4971992;28;19926;-68
2022/05/27 15:07:38;;;;;;;;;;;;;;;;;;4972947;28;19922;-69
2022/05/27 15:10:04;;;;;;;;;;;;;;;;;;4972866;28;19985;-69
2022/05/27 15:12:30;;;;;;;;;;;;;;;;;;4972496;28;20290;-69
2022/05/27 15:14:56;;;;;;;;;;;;;;;;;;4972597;28;19921;-70
2022/05/27 15:17:22;;;;;;;;;;;;;;;;;;4972869;28;20397;-70
2022/05/27 15:19:48;;;;;;;;;;;;;;;;;;4972496;28;20369;-71
2022/05/27 15:22:14;;;;;;;;;;;;;;;;;;4972519;28;19938;-71
2022/05/27 15:24:41;;;;;;;;;;;;;;;;;;4971585;28;19922;-70
2022/05/27 15:35:21;;;;;;;;;;;;;;;;;;4974647;28;19922;-69
2022/05/27 15:37:47;;;;;;;;;;;;;;;;;;4976603;28;19922;-71
2022/05/27 15:40:13;;;;;;;;;;;;;;;;;;4976390;28;20056;-68
2022/05/27 15:42:39;;;;;;;;;;;;;;;;;;4977125;28;19922;-69
2022/05/27 15:45:04;;;;;;;;;;;;;;;;;;4975318;28;19933;-70
2022/05/27 15:47:30;;;;;;;;;;;;;;;;;;4975988;28;19969;-70
2022/05/27 15:49:56;;;;;;;;;;;;;;;;;;4976745;28;19943;-69
2022/05/27 15:52:23;;;;;;;;;;;;;;;;;;4975911;28;20445;-72
2022/05/27 15:54:49;;;;;;;;;;;;;;;;;;4977092;28;20274;-69
2022/05/27 15:57:15;;;;;;;;;;;;;;;;;;4976329;28;19933;-70
2022/05/27 15:59:41;;;;;;;;;;;;;;;;;;4976206;28;19929;-69
2022/05/27 16:02:08;;;;;;;;;;;;;;;;;;4976773;28;20219;-69
2022/05/27 16:04:34;;;;;;;;;;;;;;;;;;4976786;28;19976;-68
2022/05/27 16:07:01;;;;;;;;;;;;;;;;;;4975133;28;19922;-68
2022/05/27 16:09:27;;;;;;;;;;;;;;;;;;4975877;28;19929;-68
2022/05/27 16:11:53;;;;;;;;;;;;;;;;;;4975821;28;19922;-70
2022/05/27 16:14:19;;;;;;;;;;;;;;;;;;4958668;28;19984;-67
2022/05/27 16:19:29;;;;;;;;;;;;;;;;;;4975031;28;20377;-70
2022/05/27 16:21:56;;;;;;;;;;;;;;;;;;4975703;28;20009;-67
2022/05/27 16:24:22;;;;;;;;;;;;;;;;;;4975211;28;20274;-73
2022/05/27 16:26:48;;;;;;;;;;;;;;;;;;4975270;28;20032;-69
2022/05/27 16:29:17;;;;;;;;;;;;;;;;;;4974221;28;20035;-71
2022/05/27 16:31:43;;;;;;;;;;;;;;;;;;4975994;28;19928;-72
2022/05/27 16:34:09;;;;;;;;;;;;;;;;;;4975606;28;19926;-70
2022/05/27 16:36:35;;;;;;;;;;;;;;;;;;4975457;28;19922;-68
2022/05/27 16:39:01;;;;;;;;;;;;;;;;;;4975289;28;19929;-70
2022/05/27 16:41:28;;;;;;;;;;;;;;;;;;4975400;28;19922;-70
2022/05/27 16:43:54;;;;;;;;;;;;;;;;;;4975678;28;20384;-69
2022/05/27 16:46:20;;;;;;;;;;;;;;;;;;4973445;28;20012;-70
2022/05/27 16:48:46;;;;;;;;;;;;;;;;;;4975174;28;19922;-69
2022/05/27 16:51:11;;;;;;;;;;;;;;;;;;4974886;28;19922;-71
2022/05/27 16:53:37;;;;;;;;;;;;;;;;;;4974808;28;19922;-72
2022/05/27 16:56:05;;;;;;;;;;;;;;;;;;4975000;28;20024;-70
2022/05/27 16:58:31;;;;;;;;;;;;;;;;;;4974607;28;19929;-69
2022/05/27 17:00:58;;;;;;;;;;;;;;;;;;4975126;28;19922;-68
2022/05/27 17:03:27;;;;;;;;;;;;;;;;;;4975065;28;19922;-67
2022/05/27 17:05:53;;;;;;;;;;;;;;;;;;4975342;28;20012;-69
2022/05/27 17:08:20;;;;;;;;;;;;;;;;;;4973852;28;20490;-71
2022/05/27 17:10:45;;;;;;;;;;;;;;;;;;4974920;28;20024;-68
2022/05/27 17:13:11;;;;;;;;;;;;;;;;;;4973588;28;19930;-70
2022/05/27 17:15:37;;;;;;;;;;;;;;;;;;4973385;28;19922;-67
2022/05/27 17:18:03;;;;;;;;;;;;;;;;;;4973209;28;19990;-69
2022/05/27 17:20:29;;;;;;;;;;;;;;;;;;4973525;28;19973;-68
2022/05/27 17:22:55;;;;;;;;;;;;;;;;;;4974731;28;19929;-69
2022/05/27 17:25:21;;;;;;;;;;;;;;;;;;4974859;28;19969;-70
2022/05/27 17:27:47;;;;;;;;;;;;;;;;;;4973583;28;20025;-71
2022/05/27 17:30:13;;;;;;;;;;;;;;;;;;4974629;28;20008;-70
2022/05/27 17:32:39;;;;;;;;;;;;;;;;;;4973493;28;19973;-68